Time;durP1;ratioP1;P1;durP2;ratioP2;P2;SDS_P1;SDS_P2;PMS_P1;PMS_P2;Temp;Humidity;BMP_temperature;BMP_pressure;BME280_temperature;BME280_humidity;BME280_pressure;Samples;Min_cycle;Max_cycle;Signal;HPM_P1;HPM_P2
2022/05/08 00:02:01;;;;;;;10.23;6.20;;;16.20;69.10;;;;;;5113491;28;20028;-67
2022/05/08 00:04:27;;;;;;;11.30;5.93;;;16.20;69.10;;;;;;5113502;28;20035;-67
2022/05/08 00:06:53;;;;;;;11.55;6.10;;;16.20;68.80;;;;;;5095655;28;20024;-67
2022/05/08 00:09:18;;;;;;;11.43;6.68;;;16.20;68.70;;;;;;5113445;28;20036;-67
2022/05/08 00:11:44;;;;;;;9.75;5.88;;;16.20;68.80;;;;;;5113328;28;20036;-67
2022/05/08 00:14:09;;;;;;;10.07;6.13;;;16.10;68.60;;;;;;5113382;28;20016;-67
2022/05/08 00:16:35;;;;;;;12.13;6.05;;;16.10;68.70;;;;;;5113311;28;20036;-67
2022/05/08 00:19:00;;;;;;;10.95;6.70;;;16.00;69.00;;;;;;5113325;28;20055;-67
2022/05/08 00:21:26;;;;;;;8.70;5.20;;;16.00;69.20;;;;;;5098116;28;20024;-67
2022/05/08 00:23:52;;;;;;;11.95;6.20;;;16.00;69.40;;;;;;5117547;28;20032;-67
2022/05/08 00:26:19;;;;;;;10.18;6.32;;;16.10;69.40;;;;;;5099540;28;20016;-67
2022/05/08 00:28:44;;;;;;;9.23;6.18;;;16.10;69.10;;;;;;5099445;28;20044;-67
2022/05/08 00:31:11;;;;;;;10.73;6.35;;;16.10;68.80;;;;;;5099496;28;20039;-67
2022/05/08 00:33:37;;;;;;;11.50;7.35;;;16.00;68.90;;;;;;5117360;28;20032;-67
2022/05/08 00:36:04;;;;;;;13.30;6.85;;;16.00;69.80;;;;;;5117353;28;20087;-67
2022/05/08 00:38:29;;;;;;;12.70;7.15;;;15.80;68.40;;;;;;5117170;28;20020;-67
2022/05/08 00:40:55;;;;;;;10.82;6.90;;;15.80;68.70;;;;;;5095808;28;20081;-67
2022/05/08 00:43:40;;;;;;;13.65;6.68;;;15.70;69.20;;;;;;5096832;28;20032;-67
2022/05/08 00:46:11;;;;;;;13.35;7.18;;;15.70;69.40;;;;;;5096823;28;20043;-67
2022/05/08 00:48:38;;;;;;;11.98;6.72;;;15.70;69.30;;;;;;5096790;28;20074;-67
2022/05/08 00:51:06;;;;;;;14.02;7.07;;;15.60;68.90;;;;;;5095608;28;20028;-67
2022/05/08 00:53:48;;;;;;;13.70;7.10;;;15.60;68.90;;;;;;5095687;28;20025;-67
2022/05/08 00:56:15;;;;;;;12.52;6.35;;;15.60;69.10;;;;;;5096692;28;20028;-67
2022/05/08 00:58:42;;;;;;;14.85;7.15;;;15.50;69.20;;;;;;5096571;28;20043;-67
2022/05/08 01:01:09;;;;;;;12.55;7.00;;;15.50;69.20;;;;;;5096487;28;20075;-67
2022/05/08 01:03:36;;;;;;;9.93;6.00;;;15.40;69.40;;;;;;5096475;28;20024;-67
2022/05/08 01:06:07;;;;;;;11.13;6.55;;;15.40;69.40;;;;;;5096406;28;20024;-67
2022/05/08 01:08:35;;;;;;;12.68;6.57;;;15.40;69.60;;;;;;5096362;28;20024;-67
2022/05/08 01:11:05;;;;;;;13.23;6.45;;;15.40;70.50;;;;;;5096390;28;20020;-67
2022/05/08 01:13:31;;;;;;;12.75;6.65;;;15.40;69.40;;;;;;5096358;28;20025;-67
2022/05/08 01:15:57;;;;;;;12.43;6.60;;;15.40;69.30;;;;;;5095285;28;20021;-67
2022/05/08 01:18:22;;;;;;;12.95;6.50;;;15.30;69.40;;;;;;5095241;28;20025;-67
2022/05/08 01:20:48;;;;;;;12.40;6.25;;;15.30;69.50;;;;;;5095242;28;20029;-67
2022/05/08 01:23:15;;;;;;;15.15;7.03;;;15.30;69.40;;;;;;5096250;28;20086;-67
2022/05/08 01:25:49;;;;;;;13.00;6.72;;;15.20;69.20;;;;;;5096025;28;20028;-67
2022/05/08 01:28:16;;;;;;;11.85;6.68;;;15.20;69.40;;;;;;5095988;28;20059;-67
2022/05/08 01:30:43;;;;;;;13.18;6.22;;;15.20;69.80;;;;;;5094822;28;20032;-67
2022/05/08 01:33:09;;;;;;;14.77;6.72;;;15.20;69.70;;;;;;5095244;28;20039;-67
2022/05/08 01:35:36;;;;;;;10.27;6.50;;;15.20;69.90;;;;;;5095913;28;20084;-67
2022/05/08 01:38:03;;;;;;;12.32;6.68;;;15.20;69.80;;;;;;5078262;28;20029;-67
2022/05/08 01:40:30;;;;;;;10.55;6.60;;;15.20;69.90;;;;;;5109631;28;20499;-67
2022/05/08 01:42:56;;;;;;;12.40;6.78;;;15.20;69.90;;;;;;5116082;28;20028;-67
2022/05/08 01:45:21;;;;;;;12.07;6.85;;;15.10;69.80;;;;;;5116123;28;20051;-67
2022/05/08 01:50:31;;;;;;;10.27;6.10;;;15.10;69.50;;;;;;5116090;28;20124;-67
2022/05/08 01:52:57;;;;;;;15.40;6.18;;;15.10;69.40;;;;;;5098061;28;20021;-67
2022/05/08 01:55:22;;;;;;;11.27;6.00;;;15.10;69.30;;;;;;5097955;28;20501;-67
2022/05/08 01:57:48;;;;;;;13.45;6.05;;;15.00;69.00;;;;;;5097795;28;20039;-67
2022/05/08 02:00:14;;;;;;;12.18;6.50;;;14.90;68.70;;;;;;5115751;28;20024;-67
2022/05/08 02:02:40;;;;;;;12.30;6.18;;;14.90;68.70;;;;;;5097714;28;20034;-67
2022/05/08 02:05:07;;;;;;;14.82;6.55;;;14.80;68.80;;;;;;5115680;28;20016;-67
2022/05/08 02:07:34;;;;;;;12.43;6.35;;;14.80;68.90;;;;;;5115677;28;20031;-67
2022/05/08 02:10:00;;;;;;;13.50;5.90;;;14.80;69.40;;;;;;5115666;28;20076;-67
2022/05/08 02:12:25;;;;;;;11.88;5.88;;;14.80;69.10;;;;;;5115425;28;20062;-67
2022/05/08 02:14:51;;;;;;;16.52;6.57;;;14.80;69.10;;;;;;5115560;28;20039;-67
2022/05/08 02:17:17;;;;;;;14.38;6.63;;;14.80;69.30;;;;;;5097494;28;20036;-67
2022/05/08 02:19:43;;;;;;;13.20;7.05;;;14.80;68.80;;;;;;5115481;28;20021;-67
2022/05/08 02:22:09;;;;;;;17.38;6.88;;;14.70;68.70;;;;;;5097546;28;20050;-67
2022/05/08 02:24:35;;;;;;;13.00;7.07;;;14.60;68.90;;;;;;5115270;28;20109;-67
2022/05/08 02:27:00;;;;;;;15.20;6.72;;;14.60;68.80;;;;;;5115297;28;20028;-67
2022/05/08 02:29:26;;;;;;;15.15;6.70;;;14.60;68.80;;;;;;5097119;28;20039;-67
2022/05/08 02:31:52;;;;;;;11.98;6.60;;;14.40;69.00;;;;;;5097040;28;20035;-67
2022/05/08 02:34:17;;;;;;;14.70;6.50;;;14.50;69.40;;;;;;5097232;28;20035;-67
2022/05/08 02:36:43;;;;;;;10.52;6.43;;;14.50;69.40;;;;;;5097192;28;20028;-67
2022/05/08 02:39:09;;;;;;;13.90;6.90;;;14.50;69.00;;;;;;5096906;28;20055;-67
2022/05/08 02:41:34;;;;;;;16.42;6.57;;;14.50;69.40;;;;;;5097158;28;20025;-67
2022/05/08 02:44:00;;;;;;;13.73;6.78;;;14.50;69.40;;;;;;5095984;28;20415;-67
2022/05/08 02:46:26;;;;;;;15.50;6.72;;;14.50;69.00;;;;;;5114933;28;20024;-67
2022/05/08 02:48:51;;;;;;;15.52;6.43;;;14.50;69.20;;;;;;5080111;28;20050;-67
2022/05/08 02:51:17;;;;;;;17.25;6.40;;;14.40;68.80;;;;;;5114686;28;20041;-67
2022/05/08 02:53:42;;;;;;;13.90;6.10;;;14.40;68.80;;;;;;5114718;28;20028;-67
2022/05/08 02:58:53;;;;;;;13.30;6.05;;;14.30;68.80;;;;;;5114720;28;20062;-67
2022/05/08 03:01:19;;;;;;;15.00;6.35;;;14.20;69.10;;;;;;5114656;28;20028;-67
2022/05/08 03:03:44;;;;;;;15.00;6.57;;;14.20;69.30;;;;;;5114491;28;20028;-67
2022/05/08 03:06:13;;;;;;;17.60;5.72;;;14.20;69.30;;;;;;5096554;28;20051;-67
2022/05/08 03:08:38;;;;;;;13.98;5.75;;;14.20;69.40;;;;;;5114396;28;20020;-67
2022/05/08 03:13:48;;;;;;;14.60;5.57;;;14.20;69.50;;;;;;5114410;28;20043;-67
2022/05/08 03:16:14;;;;;;;14.73;5.95;;;14.20;69.30;;;;;;5096456;28;20032;-67
2022/05/08 03:18:40;;;;;;;14.15;5.68;;;14.10;69.30;;;;;;5114227;28;20051;-67
2022/05/08 03:21:07;;;;;;;12.65;5.25;;;14.20;69.20;;;;;;5114185;28;20547;-67
2022/05/08 03:23:34;;;;;;;17.00;5.65;;;14.20;69.10;;;;;;5114121;28;20023;-67
2022/05/08 03:25:59;;;;;;;15.32;5.60;;;14.10;69.00;;;;;;5096205;28;20024;-67
2022/05/08 03:28:25;;;;;;;17.05;5.20;;;14.10;69.10;;;;;;5113981;28;20035;-67
2022/05/08 03:30:51;;;;;;;15.95;5.05;;;14.10;68.60;;;;;;5113934;28;20039;-67
2022/05/08 03:33:17;;;;;;;14.50;4.72;;;14.10;68.70;;;;;;5096003;28;20028;-67
2022/05/08 03:35:43;;;;;;;14.00;5.13;;;14.00;68.40;;;;;;5113974;28;20030;-67
2022/05/08 03:38:09;;;;;;;15.43;4.50;;;14.00;68.20;;;;;;5113898;28;20024;-67
2022/05/08 03:40:36;;;;;;;16.73;4.10;;;14.00;68.10;;;;;;5113651;28;20043;-67
2022/05/08 03:43:02;;;;;;;15.93;4.85;;;13.90;67.90;;;;;;5113806;28;20032;-67
2022/05/08 03:45:31;;;;;;;13.90;4.00;;;13.90;67.90;;;;;;5079222;28;20030;-67
2022/05/08 03:48:00;;;;;;;12.45;4.32;;;13.90;67.80;;;;;;5113825;28;20028;-67
2022/05/08 03:50:27;;;;;;;17.38;4.40;;;13.80;67.80;;;;;;5113635;28;20039;-67
2022/05/08 03:52:52;;;;;;;13.93;4.25;;;13.80;68.00;;;;;;5113706;28;20406;-67
2022/05/08 03:55:18;;;;;;;17.02;4.30;;;13.80;68.00;;;;;;5095450;28;20035;-67
2022/05/08 03:57:44;;;;;;;16.98;3.92;;;13.80;67.90;;;;;;5113617;28;20032;-67
2022/05/08 04:00:11;;;;;;;11.70;4.68;;;13.80;68.10;;;;;;5113545;28;20020;-67
2022/05/08 04:02:36;;;;;;;15.23;3.95;;;13.70;68.00;;;;;;5113533;28;20039;-67
2022/05/08 04:05:03;;;;;;;11.98;3.78;;;13.70;68.00;;;;;;5113498;28;20084;-67
2022/05/08 04:07:29;;;;;;;15.93;4.30;;;13.70;67.90;;;;;;5095663;28;20024;-67
2022/05/08 04:09:55;;;;;;;15.18;4.18;;;13.70;68.10;;;;;;5095640;28;20036;-67
2022/05/08 04:12:21;;;;;;;16.15;3.97;;;13.70;68.20;;;;;;5113341;28;20020;-67
2022/05/08 04:14:47;;;;;;;15.80;4.20;;;13.70;67.90;;;;;;5113392;28;20084;-67
2022/05/08 04:17:12;;;;;;;15.50;3.63;;;13.70;67.90;;;;;;5095465;28;20034;-67
2022/05/08 04:19:38;;;;;;;13.98;3.90;;;13.70;68.10;;;;;;5095540;28;20044;-67
2022/05/08 04:24:48;;;;;;;16.08;4.22;;;13.60;68.00;;;;;;5113393;28;20043;-67
2022/05/08 04:27:14;;;;;;;12.70;3.67;;;13.60;68.20;;;;;;5113208;28;20040;-67
2022/05/08 04:29:39;;;;;;;13.35;3.60;;;13.60;67.90;;;;;;5078504;28;20032;-67
2022/05/08 04:32:05;;;;;;;14.13;3.75;;;13.60;67.80;;;;;;5113151;28;20036;-67
2022/05/08 04:34:31;;;;;;;12.65;3.42;;;13.50;67.70;;;;;;5078674;28;20025;-67
2022/05/08 04:36:56;;;;;;;14.80;4.22;;;13.50;67.70;;;;;;5095346;28;20035;-67
2022/05/08 04:39:23;;;;;;;14.27;3.53;;;13.50;67.70;;;;;;5113012;28;20082;-67
2022/05/08 04:41:49;;;;;;;12.82;3.58;;;13.60;67.70;;;;;;5113312;28;20370;-67
2022/05/08 04:44:14;;;;;;;13.55;4.05;;;13.60;68.40;;;;;;5078593;28;20032;-67
2022/05/08 04:46:40;;;;;;;11.43;3.25;;;13.60;67.50;;;;;;5078526;28;20060;-67
2022/05/08 04:49:06;;;;;;;15.50;3.42;;;13.50;67.70;;;;;;5113204;28;20047;-67
2022/05/08 04:51:31;;;;;;;13.80;3.38;;;13.60;67.30;;;;;;5095207;28;20502;-67
2022/05/08 04:53:57;;;;;;;12.48;3.30;;;13.50;66.90;;;;;;5113014;28;20039;-67
2022/05/08 04:56:23;;;;;;;12.93;4.07;;;13.50;67.30;;;;;;5095060;28;20020;-67
2022/05/08 04:58:48;;;;;;;18.05;4.32;;;13.50;67.00;;;;;;5112961;28;20025;-67
2022/05/08 05:01:14;;;;;;;10.02;3.60;;;13.50;67.10;;;;;;5112992;28;20032;-68
2022/05/08 05:03:41;;;;;;;14.68;3.15;;;13.50;67.20;;;;;;5095122;28;20024;-67
2022/05/08 05:06:07;;;;;;;12.90;3.60;;;13.50;67.50;;;;;;5112940;28;20024;-69
2022/05/08 05:08:32;;;;;;;18.48;3.85;;;13.40;67.10;;;;;;5115563;28;20108;-68
2022/05/08 05:10:58;;;;;;;12.65;3.67;;;13.40;67.20;;;;;;5116626;28;20055;-68
2022/05/08 05:13:25;;;;;;;15.60;3.40;;;13.40;67.10;;;;;;5098835;28;20024;-67
2022/05/08 05:15:51;;;;;;;17.02;3.70;;;13.40;67.10;;;;;;5098549;28;20027;-67
2022/05/08 05:18:16;;;;;;;15.38;3.92;;;13.50;67.30;;;;;;5098718;28;20020;-67
2022/05/08 05:20:42;;;;;;;12.27;3.08;;;13.50;67.30;;;;;;5098635;28;20091;-67
2022/05/08 05:23:08;;;;;;;18.40;3.38;;;13.50;67.10;;;;;;5116474;28;20046;-67
2022/05/08 05:25:34;;;;;;;16.52;3.45;;;13.40;66.20;;;;;;5116426;28;20020;-68
2022/05/08 05:28:00;;;;;;;13.23;3.58;;;13.30;66.60;;;;;;5116305;28;20025;-67
2022/05/08 05:30:25;;;;;;;17.95;3.70;;;13.40;67.10;;;;;;5116277;28;20534;-66
2022/05/08 05:32:51;;;;;;;16.83;3.88;;;13.50;67.00;;;;;;5098443;28;20067;-67
2022/05/08 05:35:17;;;;;;;18.33;3.53;;;13.40;66.50;;;;;;5116232;28;20032;-67
2022/05/08 05:37:42;;;;;;;14.27;3.10;;;13.40;66.70;;;;;;5116201;28;20028;-67
2022/05/08 05:40:08;;;;;;;15.77;3.35;;;13.40;66.30;;;;;;5116006;28;20104;-67
2022/05/08 05:42:34;;;;;;;12.00;4.13;;;13.40;66.70;;;;;;5116085;28;20039;-67
2022/05/08 05:45:00;;;;;;;15.43;3.40;;;13.40;66.80;;;;;;5116020;28;20032;-67
2022/05/08 05:50:11;;;;;;;16.05;3.65;;;13.50;66.60;;;;;;5116185;28;20039;-67
2022/05/08 05:52:37;;;;;;;14.05;3.67;;;13.40;66.50;;;;;;5098145;28;20028;-67
2022/05/08 05:55:04;;;;;;;11.25;3.42;;;13.40;66.40;;;;;;5097969;28;20021;-67
2022/05/08 05:57:30;;;;;;;12.55;3.10;;;13.40;67.10;;;;;;5115855;28;20018;-67
2022/05/08 05:59:56;;;;;;;13.32;2.90;;;13.50;66.80;;;;;;5115759;28;20035;-67
2022/05/08 06:02:22;;;;;;;12.30;2.83;;;13.50;66.30;;;;;;5115764;28;20115;-67
2022/05/08 06:04:47;;;;;;;11.30;3.00;;;13.50;66.10;;;;;;5097877;28;20024;-67
2022/05/08 06:07:13;;;;;;;14.95;3.70;;;13.40;66.30;;;;;;5115606;28;20032;-67
2022/05/08 06:09:39;;;;;;;12.50;3.35;;;13.50;66.60;;;;;;5115568;28;20028;-67
2022/05/08 06:12:05;;;;;;;16.17;3.22;;;13.50;66.50;;;;;;5097541;28;20058;-67
2022/05/08 06:14:31;;;;;;;11.07;3.45;;;13.50;66.40;;;;;;5115470;28;20051;-67
2022/05/08 06:16:57;;;;;;;12.38;3.10;;;13.60;66.70;;;;;;5097480;28;20027;-67
2022/05/08 06:19:23;;;;;;;12.63;2.70;;;13.60;66.60;;;;;;5115225;28;20061;-67
2022/05/08 06:21:48;;;;;;;16.58;3.45;;;13.60;67.00;;;;;;5115284;28;20032;-67
2022/05/08 06:24:14;;;;;;;16.75;4.50;;;13.70;66.50;;;;;;5115277;28;20051;-67
2022/05/08 06:26:40;;;;;;;12.85;3.13;;;13.70;66.00;;;;;;5115200;28;20039;-67
2022/05/08 06:29:05;;;;;;;11.38;3.97;;;13.70;66.20;;;;;;5115120;28;20079;-67
2022/05/08 06:31:31;;;;;;;16.05;3.42;;;13.80;65.90;;;;;;5115219;28;20467;-68
2022/05/08 06:33:57;;;;;;;14.45;3.42;;;13.80;65.60;;;;;;5115094;28;20019;-68
2022/05/08 06:36:24;;;;;;;14.23;3.70;;;13.80;65.60;;;;;;5115037;28;20024;-67
2022/05/08 06:38:49;;;;;;;12.25;3.40;;;13.80;65.40;;;;;;5114850;28;20026;-69
2022/05/08 06:41:15;;;;;;;13.60;3.55;;;13.80;65.00;;;;;;5097077;28;20146;-68
2022/05/08 06:43:41;;;;;;;15.10;3.97;;;13.70;65.70;;;;;;5114867;28;20039;-67
2022/05/08 06:46:08;;;;;;;15.13;3.78;;;13.70;65.60;;;;;;5114832;28;20062;-68
2022/05/08 06:48:34;;;;;;;16.92;3.10;;;13.70;65.90;;;;;;5114840;28;20017;-68
2022/05/08 06:51:00;;;;;;;14.52;3.05;;;13.70;65.30;;;;;;5114655;28;20048;-68
2022/05/08 06:53:26;;;;;;;11.07;3.30;;;13.70;65.90;;;;;;5114689;28;20028;-67
2022/05/08 06:55:53;;;;;;;12.77;3.03;;;13.80;65.30;;;;;;5096689;28;20043;-67
2022/05/08 06:58:20;;;;;;;13.18;3.33;;;13.90;65.40;;;;;;5114608;28;20092;-67
2022/05/08 07:03:31;;;;;;;11.43;3.20;;;14.00;64.60;;;;;;5114837;28;20053;-68
2022/05/08 07:05:57;;;;;;;11.77;2.78;;;13.90;64.80;;;;;;5114428;28;20059;-68
2022/05/08 07:08:23;;;;;;;11.95;2.95;;;14.00;65.30;;;;;;5114422;28;20097;-67
2022/05/08 07:10:49;;;;;;;11.10;2.97;;;14.00;65.00;;;;;;5114459;28;20080;-68
2022/05/08 07:13:16;;;;;;;16.20;4.05;;;14.10;65.10;;;;;;5114318;28;20020;-69
2022/05/08 07:15:41;;;;;;;12.73;3.45;;;14.20;64.60;;;;;;5114263;28;20027;-69
2022/05/08 07:18:07;;;;;;;13.40;3.40;;;14.20;64.60;;;;;;5096405;28;20020;-69
2022/05/08 07:20:33;;;;;;;11.57;3.17;;;14.20;64.00;;;;;;5114165;28;20024;-69
2022/05/08 07:22:59;;;;;;;13.95;3.25;;;14.20;64.50;;;;;;5114108;28;20028;-68
2022/05/08 07:25:25;;;;;;;14.52;2.90;;;14.30;64.20;;;;;;5114147;28;20020;-69
2022/05/08 07:27:51;;;;;;;13.75;3.25;;;14.30;63.70;;;;;;5113977;28;20028;-69
2022/05/08 07:30:17;;;;;;;9.65;3.03;;;14.30;63.70;;;;;;5095694;28;20016;-69
2022/05/08 07:32:44;;;;;;;18.40;4.00;;;14.20;63.70;;;;;;5114007;28;20032;-69
2022/05/08 07:37:55;;;;;;;15.95;3.35;;;14.30;64.40;;;;;;5114089;28;20034;-68
2022/05/08 07:40:21;;;;;;;10.38;3.28;;;14.40;65.10;;;;;;5113679;28;20068;-69
2022/05/08 07:42:46;;;;;;;11.07;3.22;;;14.40;65.00;;;;;;5095831;28;20040;-69
2022/05/08 07:45:12;;;;;;;12.30;2.50;;;14.50;64.10;;;;;;5113746;28;20028;-69
2022/05/08 07:47:39;;;;;;;14.82;3.63;;;14.60;64.10;;;;;;5113718;28;20028;-69
2022/05/08 07:50:06;;;;;;;12.18;3.33;;;14.60;63.60;;;;;;5079357;28;20024;-69
2022/05/08 07:52:37;;;;;;;11.23;2.85;;;14.70;63.10;;;;;;5113712;28;20031;-69
2022/05/08 07:55:04;;;;;;;13.65;3.08;;;14.80;63.10;;;;;;5113699;28;20031;-69
2022/05/08 07:57:29;;;;;;;13.80;2.78;;;14.90;63.00;;;;;;5113688;28;20088;-69
2022/05/08 07:59:55;;;;;;;14.52;3.20;;;15.00;62.90;;;;;;5095767;28;20597;-69
2022/05/08 08:02:20;;;;;;;11.77;2.92;;;15.00;62.00;;;;;;5113514;28;20032;-69
2022/05/08 08:04:46;;;;;;;15.10;3.22;;;15.00;61.40;;;;;;5113527;28;20052;-68
2022/05/08 08:07:12;;;;;;;9.98;3.28;;;15.10;61.70;;;;;;5113453;28;20032;-68
2022/05/08 08:09:37;;;;;;;9.25;3.20;;;15.20;61.60;;;;;;5095628;28;20032;-68
2022/05/08 08:12:03;;;;;;;9.68;3.15;;;15.30;61.40;;;;;;5113481;28;20032;-68
2022/05/08 08:14:29;;;;;;;13.13;3.30;;;15.30;61.80;;;;;;5113394;28;20024;-68
2022/05/08 08:16:55;;;;;;;13.88;2.78;;;15.30;61.60;;;;;;5113341;28;20051;-68
2022/05/08 08:19:21;;;;;;;11.93;3.20;;;15.40;60.90;;;;;;5095374;28;20043;-69
2022/05/08 08:21:46;;;;;;;11.75;2.70;;;15.40;60.00;;;;;;5095351;28;20035;-68
2022/05/08 08:24:12;;;;;;;13.00;3.45;;;15.40;59.40;;;;;;5113412;28;20083;-69
2022/05/08 08:26:40;;;;;;;11.60;3.83;;;15.40;60.10;;;;;;5113259;28;20040;-69
2022/05/08 08:29:06;;;;;;;11.05;3.08;;;15.50;60.20;;;;;;5095311;28;20024;-68
2022/05/08 08:31:32;;;;;;;9.48;2.83;;;15.60;60.20;;;;;;5113146;28;20028;-68
2022/05/08 08:33:58;;;;;;;10.00;2.70;;;15.80;60.30;;;;;;5113229;28;20066;-69
2022/05/08 08:36:24;;;;;;;11.50;2.70;;;15.90;59.70;;;;;;5113199;28;20053;-68
2022/05/08 08:38:50;;;;;;;9.35;3.33;;;16.00;57.90;;;;;;5095088;28;20100;-69
2022/05/08 08:41:21;;;;;;;10.23;3.38;;;16.00;58.70;;;;;;5113125;28;20032;-69
2022/05/08 08:49:23;;;;;;;10.38;3.08;;;16.30;58.60;;;;;;5117344;28;20062;-69
2022/05/08 08:51:50;;;;;;;8.88;2.78;;;16.30;57.00;;;;;;5117034;28;20032;-70
2022/05/08 08:54:20;;;;;;;7.72;2.40;;;16.30;57.30;;;;;;5117057;28;20020;-69
2022/05/08 08:56:46;;;;;;;9.82;3.05;;;16.30;57.20;;;;;;5117014;28;20032;-69
2022/05/08 08:59:12;;;;;;;8.63;3.08;;;16.40;56.20;;;;;;5099135;28;20032;-69
2022/05/08 09:01:44;;;;;;;10.93;3.13;;;16.40;56.50;;;;;;5116878;28;20042;-69
2022/05/08 09:04:11;;;;;;;10.27;2.97;;;16.50;57.20;;;;;;5098857;28;20035;-69
2022/05/08 09:06:41;;;;;;;9.30;2.95;;;16.50;56.70;;;;;;5099044;28;20028;-69
2022/05/08 09:09:23;;;;;;;10.07;2.78;;;16.60;55.50;;;;;;5116748;28;20028;-69
2022/05/08 09:11:53;;;;;;;13.37;3.07;;;16.70;56.70;;;;;;5098650;28;20025;-70
2022/05/08 09:14:36;;;;;;;14.27;5.07;;;16.70;57.30;;;;;;5116811;28;20037;-68
2022/05/08 09:17:05;;;;;;;;;;;16.80;56.40;;;;;;5117050;28;20029;-68
2022/05/08 09:19:37;;;;;;;8.85;2.38;;;16.80;55.80;;;;;;5116614;28;19904;-68
2022/05/08 09:22:04;;;;;;;7.93;2.80;;;16.80;55.10;;;;;;5116561;28;20028;-68
2022/05/08 09:24:31;;;;;;;13.23;3.42;;;16.90;54.40;;;;;;5116475;28;20028;-68
2022/05/08 09:27:13;;;;;;;10.90;3.08;;;16.90;55.10;;;;;;5116392;28;20028;-68
2022/05/08 09:29:40;;;;;;;11.70;3.40;;;17.10;55.40;;;;;;5116266;28;20074;-68
2022/05/08 09:32:06;;;;;;;11.73;3.00;;;17.10;55.20;;;;;;5098307;28;20032;-68
2022/05/08 09:34:57;;;;;;;11.00;2.58;;;17.20;55.50;;;;;;5116284;28;20024;-68
2022/05/08 09:37:24;;;;;;;9.45;2.70;;;17.20;53.10;;;;;;5116349;28;20019;-69
2022/05/08 09:39:50;;;;;;;10.82;2.95;;;17.20;52.80;;;;;;5115979;28;20040;-69
2022/05/08 09:42:35;;;;;;;10.07;2.90;;;17.30;53.50;;;;;;5116132;28;20035;-68
2022/05/08 09:45:07;;;;;;;9.52;2.88;;;17.40;53.20;;;;;;5097972;28;20026;-70
2022/05/08 09:47:49;;;;;;;9.38;3.33;;;17.40;54.90;;;;;;5116016;28;20036;-69
2022/05/08 09:50:17;;;;;;;9.88;2.90;;;17.60;54.60;;;;;;5115967;28;20027;-69
2022/05/08 09:52:45;;;;;;;9.00;2.75;;;17.60;53.10;;;;;;5097491;28;20028;-69
2022/05/08 09:55:12;;;;;;;9.10;2.95;;;17.50;53.00;;;;;;5115504;28;20036;-68
2022/05/08 09:57:41;;;;;;;9.18;3.00;;;17.60;53.40;;;;;;5115940;28;20031;-69
2022/05/08 10:00:08;;;;;;;10.77;3.22;;;17.70;53.10;;;;;;5115808;28;20025;-69
2022/05/08 10:02:38;;;;;;;9.32;2.78;;;17.80;53.40;;;;;;5115671;28;20035;-69
2022/05/08 10:05:05;;;;;;;9.13;2.97;;;17.90;54.00;;;;;;5115677;28;20054;-69
2022/05/08 10:07:32;;;;;;;10.27;3.38;;;17.90;50.80;;;;;;5115507;28;20028;-69
2022/05/08 10:15:30;;;;;;;7.95;3.08;;;17.90;53.00;;;;;;5115724;28;20133;-69
2022/05/08 10:18:28;;;;;;;8.18;2.72;;;18.00;52.30;;;;;;5115531;28;20024;-69
2022/05/08 10:21:06;;;;;;;11.80;3.03;;;18.20;52.20;;;;;;5043186;28;20124;-68
2022/05/08 10:23:45;;;;;;;7.05;2.80;;;18.30;52.40;;;;;;5097587;28;20028;-68
2022/05/08 10:26:19;;;;;;;9.73;3.08;;;18.30;52.00;;;;;;5115286;28;20048;-68
2022/05/08 10:29:03;;;;;;;10.95;3.20;;;18.20;50.40;;;;;;5115212;28;20050;-67
2022/05/08 10:31:45;;;;;;;11.80;3.22;;;18.30;50.60;;;;;;5115124;28;20394;-69
2022/05/08 10:34:13;;;;;;;11.10;3.60;;;18.40;52.50;;;;;;5115358;28;20020;-68
2022/05/08 10:36:42;;;;;;;9.88;2.83;;;18.50;52.40;;;;;;5097140;28;20109;-68
2022/05/08 10:39:40;;;;;;;9.55;2.92;;;18.60;52.70;;;;;;5096715;28;20058;-68
2022/05/08 10:42:29;;;;;;;7.78;3.30;;;18.60;49.20;;;;;;5115101;28;20047;-68
2022/05/08 10:44:56;;;;;;;8.48;3.10;;;18.60;51.70;;;;;;5096821;28;20032;-68
2022/05/08 10:47:37;;;;;;;10.95;2.90;;;18.70;52.10;;;;;;5097014;28;20033;-68
2022/05/08 10:50:04;;;;;;;9.73;3.58;;;18.80;51.00;;;;;;5114791;28;20035;-69
2022/05/08 10:52:30;;;;;;;8.38;2.92;;;18.90;50.70;;;;;;5114709;28;20020;-69
2022/05/08 10:54:57;;;;;;;9.60;3.28;;;19.00;51.20;;;;;;5114690;28;20047;-69
2022/05/08 10:57:32;;;;;;;11.82;3.08;;;19.10;50.60;;;;;;5114653;28;20024;-69
2022/05/08 10:59:59;;;;;;;9.98;3.40;;;19.10;49.70;;;;;;5114590;28;20024;-70
2022/05/08 11:02:47;;;;;;;10.73;3.08;;;19.20;50.70;;;;;;5114548;28;20028;-70
2022/05/08 11:05:23;;;;;;;13.40;3.83;;;19.30;50.80;;;;;;5113723;28;20028;-70
2022/05/08 11:08:10;;;;;;;8.52;3.00;;;19.30;50.50;;;;;;5096939;28;20490;-70
2022/05/08 11:10:40;;;;;;;6.95;3.13;;;19.30;49.70;;;;;;5114413;28;20020;-70
2022/05/08 11:13:13;;;;;;;6.47;2.90;;;19.30;49.60;;;;;;5114425;28;20031;-70
2022/05/08 11:15:49;;;;;;;8.88;2.85;;;19.30;47.20;;;;;;5114340;28;20077;-70
2022/05/08 11:18:23;;;;;;;10.27;3.10;;;19.30;48.60;;;;;;5114335;28;20024;-71
2022/05/08 11:20:52;;;;;;;9.82;3.30;;;19.20;46.90;;;;;;5114176;28;20039;-71
2022/05/08 11:23:20;;;;;;;9.48;3.05;;;19.10;49.40;;;;;;5114217;28;20035;-71
2022/05/08 11:25:48;;;;;;;9.98;3.20;;;19.20;48.50;;;;;;5114187;28;20028;-71
2022/05/08 11:28:18;;;;;;;12.32;3.25;;;19.30;49.30;;;;;;5114013;28;20054;-71
2022/05/08 11:30:46;;;;;;;7.43;3.45;;;19.40;48.60;;;;;;5096855;28;20035;-71
2022/05/08 11:36:08;;;;;;;9.07;3.25;;;19.50;48.50;;;;;;5114226;28;20095;-71
2022/05/08 11:38:44;;;;;;;10.68;3.25;;;19.50;48.40;;;;;;5114089;28;20020;-71
2022/05/08 11:41:10;;;;;;;12.02;3.40;;;19.60;48.10;;;;;;5113705;28;20054;-71
2022/05/08 11:43:46;;;;;;;9.00;3.05;;;19.70;48.20;;;;;;5113844;28;20047;-71
2022/05/08 11:46:17;;;;;;;5.18;2.85;;;19.90;46.70;;;;;;5113819;28;20124;-71
2022/05/08 11:48:46;;;;;;;10.35;3.25;;;19.90;46.50;;;;;;5113795;28;20085;-71
2022/05/08 11:51:13;;;;;;;12.98;3.53;;;19.90;46.60;;;;;;5113622;28;20084;-71
2022/05/08 11:53:47;;;;;;;6.78;3.25;;;19.90;47.10;;;;;;5113717;28;20020;-71
2022/05/08 11:56:22;;;;;;;11.20;3.15;;;20.00;46.20;;;;;;5113650;28;20020;-71
2022/05/08 11:58:48;;;;;;;7.65;3.10;;;20.00;46.80;;;;;;5113659;28;20031;-71
2022/05/08 12:01:47;;;;;;;7.05;3.20;;;19.90;46.50;;;;;;5113551;28;20032;-71
2022/05/08 12:04:26;;;;;;;7.75;2.88;;;20.10;45.40;;;;;;5113347;28;20024;-71
2022/05/08 12:07:11;;;;;;;11.57;3.30;;;20.10;44.70;;;;;;5113542;28;20036;-71
2022/05/08 12:09:59;;;;;;;9.70;3.60;;;20.10;45.70;;;;;;5095597;28;20063;-71
2022/05/08 12:12:27;;;;;;;5.07;2.80;;;20.20;45.40;;;;;;5112604;28;20032;-71
2022/05/08 12:14:54;;;;;;;8.75;2.85;;;20.20;43.20;;;;;;5113443;28;20099;-70
2022/05/08 12:17:20;;;;;;;6.07;2.85;;;20.20;43.80;;;;;;5113166;28;20043;-70
2022/05/08 12:19:54;;;;;;;6.80;2.47;;;20.10;43.40;;;;;;5113355;28;20044;-70
2022/05/08 12:22:25;;;;;;;6.32;2.42;;;20.20;44.00;;;;;;5113503;28;20024;-71
2022/05/08 12:24:55;;;;;;;6.25;2.88;;;20.30;43.90;;;;;;5113321;28;20103;-71
2022/05/08 12:27:21;;;;;;;8.93;2.65;;;20.50;43.70;;;;;;5113294;28;20478;-72
2022/05/08 12:29:47;;;;;;;9.13;2.53;;;20.50;42.20;;;;;;5113203;28;20053;-72
2022/05/08 12:32:17;;;;;;;7.05;2.58;;;20.50;43.60;;;;;;5113189;28;20088;-71
2022/05/08 12:34:44;;;;;;;6.72;2.75;;;20.60;42.90;;;;;;5113225;28;20039;-71
2022/05/08 12:37:11;;;;;;;9.60;3.00;;;20.60;43.10;;;;;;5113227;28;20031;-72
2022/05/08 12:39:41;;;;;;;4.95;2.53;;;20.70;43.50;;;;;;5113020;28;20119;-72
2022/05/08 12:42:08;;;;;;;6.50;2.70;;;20.90;42.70;;;;;;5078562;28;20036;-71
2022/05/08 12:44:34;;;;;;;4.57;2.60;;;21.00;42.70;;;;;;5095350;28;20103;-71
2022/05/08 12:47:00;;;;;;;7.07;2.78;;;21.10;41.30;;;;;;5113219;28;20024;-72
2022/05/08 12:49:26;;;;;;;7.88;2.58;;;21.20;41.20;;;;;;5113209;28;20032;-71
2022/05/08 12:51:51;;;;;;;7.25;2.28;;;21.20;40.60;;;;;;5113018;28;20033;-71
2022/05/08 12:54:17;;;;;;;7.60;2.80;;;21.30;41.90;;;;;;5113027;28;20089;-72
2022/05/08 12:56:44;;;;;;;8.15;2.42;;;21.30;41.70;;;;;;5078451;28;20024;-72
2022/05/08 13:01:54;;;;;;;6.20;2.58;;;21.50;41.00;;;;;;5098096;28;20046;-71
2022/05/08 13:04:20;;;;;;;9.32;2.63;;;21.60;40.00;;;;;;5113026;28;20471;-72
2022/05/08 13:06:46;;;;;;;5.90;2.35;;;21.60;39.20;;;;;;5112849;28;20038;-72
2022/05/08 13:09:12;;;;;;;5.45;2.25;;;21.60;39.60;;;;;;5095039;28;20040;-72
2022/05/08 13:11:38;;;;;;;8.38;2.42;;;21.70;40.20;;;;;;5094862;28;20020;-72
2022/05/08 13:14:05;;;;;;;4.60;2.28;;;21.70;40.10;;;;;;5094975;28;20022;-72
2022/05/08 13:16:31;;;;;;;5.50;2.63;;;21.60;39.30;;;;;;5112870;28;20047;-72
2022/05/08 13:18:57;;;;;;;6.47;2.75;;;21.60;40.30;;;;;;5112981;28;20024;-72
2022/05/08 13:21:23;;;;;;;5.18;2.10;;;21.60;40.00;;;;;;5112787;28;20034;-71